Time;durP1;ratioP1;P1;durP2;ratioP2;P2;SDS_P1;SDS_P2;PMS_P1;PMS_P2;Temp;Humidity;BMP_temperature;BMP_pressure;BME280_temperature;BME280_humidity;BME280_pressure;Samples;Min_cycle;Max_cycle;Signal;HPM_P1;HPM_P2
2020/12/23 00:02:23;;;;;;;9.83;4.73;;;;;;;-144.99;100.00;52541.84;5082827;28;20757;-73
2020/12/23 00:04:49;;;;;;;18.13;3.53;;;;;;;-144.99;100.00;52517.41;5089195;28;21222;-71
2020/12/23 00:07:16;;;;;;;5.93;4.20;;;;;;;-144.99;100.00;52570.38;5079481;28;21004;-71
2020/12/23 00:09:42;;;;;;;14.23;3.70;;;;;;;-144.99;100.00;52521.47;5092824;28;21151;-72
2020/12/23 00:12:09;;;;;;;15.70;3.67;;;;;;;-144.99;100.00;52525.56;5091849;28;20712;-70
2020/12/23 00:14:35;;;;;;;9.47;4.33;;;;;;;-144.99;100.00;52554.09;5086168;28;20677;-72
2020/12/23 00:17:01;;;;;;;15.77;5.63;;;;;;;-144.99;100.00;52513.31;5088288;28;20725;-70
2020/12/23 00:19:27;;;;;;;23.10;4.17;;;;;;;-144.99;100.00;52529.63;5076674;28;20719;-71
2020/12/23 00:21:54;;;;;;;5.83;3.37;;;;;;;-144.99;100.00;52554.09;5082503;28;20969;-71
2020/12/23 00:24:20;;;;;;;6.13;2.93;;;;;;;-144.99;100.00;52497.00;5082856;28;20673;-71
2020/12/23 00:26:46;;;;;;;7.43;2.83;;;;;;;-144.99;100.00;52515.34;5086341;28;20677;-70
2020/12/23 00:29:13;;;;;;;16.33;4.23;;;;;;;-144.99;100.00;52523.50;5090739;28;20661;-70
2020/12/23 00:31:41;;;;;;;6.20;2.17;;;;;;;-144.99;100.00;52515.34;5088777;28;20708;-74
2020/12/23 00:34:07;;;;;;;8.23;2.60;;;;;;;-144.99;100.00;52550.00;5088101;28;20759;-73
2020/12/23 00:36:33;;;;;;;10.17;3.47;;;;;;;-144.99;100.00;52554.09;5088297;28;20642;-73
2020/12/23 00:38:59;;;;;;;7.63;6.07;;;;;;;-144.99;100.00;52590.78;5083834;28;20626;-73
2020/12/23 00:41:26;;;;;;;19.67;3.53;;;;;;;-144.99;100.00;52566.31;5087073;28;20681;-73
2020/12/23 00:43:52;;;;;;;10.20;4.93;;;;;;;-144.99;100.00;52545.94;5083088;28;20654;-74
2020/12/23 00:46:22;;;;;;;25.67;4.23;;;;;;;-144.99;100.00;52543.91;5086923;28;20690;-73
2020/12/23 00:48:48;;;;;;;5.07;2.83;;;;;;;-144.99;100.00;52525.56;5083739;28;20649;-74
2020/12/23 00:51:15;;;;;;;9.53;2.67;;;;;;;-144.99;100.00;52556.13;5086224;28;21204;-73
2020/12/23 00:53:42;;;;;;;12.20;3.83;;;;;;;-144.99;100.00;52525.56;5079097;28;20670;-73
2020/12/23 00:56:09;;;;;;;12.87;5.73;;;;;;;-144.99;100.00;52527.59;5078486;28;20964;-72
2020/12/23 00:58:35;;;;;;;9.63;3.23;;;;;;;-144.99;100.00;52511.28;5084956;28;20722;-73
2020/12/23 01:01:21;;;;;;;8.03;2.80;;;;;;;-144.99;100.00;52525.56;5078900;28;21177;-72
2020/12/23 01:03:59;;;;;;;7.20;3.70;;;;;;;-144.99;100.00;52529.63;5156193;27;20718;-72
2020/12/23 01:06:25;;;;;;;9.93;3.17;;;;;;;-144.99;100.00;52533.69;5148969;27;21227;-72
2020/12/23 01:08:51;;;;;;;13.43;4.03;;;;;;;-144.99;100.00;52517.41;5141909;27;20635;-73
2020/12/23 01:11:17;;;;;;;11.00;3.43;;;;;;;-144.99;100.00;52529.63;5143100;27;20659;-72
2020/12/23 01:13:43;;;;;;;14.20;3.33;;;;;;;-144.99;100.00;52545.94;5139825;27;20624;-72
2020/12/23 01:16:09;;;;;;;17.07;4.70;;;;;;;-144.99;100.00;52537.78;5137858;27;20667;-73
2020/12/23 01:18:36;;;;;;;8.70;4.00;;;;;;;-144.99;100.00;52582.63;5136770;27;20620;-74
2020/12/23 01:21:03;;;;;;;17.13;4.07;;;;;;;-144.99;100.00;52523.50;5137290;27;20619;-73
2020/12/23 01:23:29;;;;;;;7.30;3.27;;;;;;;-144.99;100.00;52570.38;5136605;27;20688;-74
2020/12/23 01:25:56;;;;;;;8.80;3.00;;;;;;;-144.99;100.00;52497.00;5141357;27;20780;-72
2020/12/23 01:28:22;;;;;;;14.37;3.57;;;;;;;-144.99;100.00;52550.00;5142381;27;20655;-72
2020/12/23 01:30:49;;;;;;;8.50;3.70;;;;;;;-144.99;100.00;52521.47;5140299;27;20690;-71
2020/12/23 01:33:15;;;;;;;12.73;3.87;;;;;;;-144.99;100.00;52497.00;5140502;27;20723;-72
2020/12/23 01:35:41;;;;;;;9.17;3.67;;;;;;;-144.99;100.00;52554.09;5138805;27;20667;-72
2020/12/23 01:38:08;;;;;;;7.43;3.00;;;;;;;-144.99;100.00;52533.69;5136940;27;20627;-73
2020/12/23 01:40:34;;;;;;;7.23;2.80;;;;;;;-144.99;100.00;52554.09;5139063;27;20873;-72
2020/12/23 01:43:01;;;;;;;8.60;3.90;;;;;;;-144.99;100.00;52574.47;5142641;27;20782;-74
2020/12/23 01:45:27;;;;;;;14.83;6.63;;;;;;;-144.99;100.00;52558.16;5131284;27;21204;-71
2020/12/23 01:47:57;;;;;;;9.07;3.30;;;;;;;-144.99;100.00;52566.31;5140286;27;20639;-71
2020/12/23 01:50:23;;;;;;;9.43;3.50;;;;;;;-144.99;100.00;52566.31;5140770;27;20652;-73
2020/12/23 01:52:52;;;;;;;9.87;3.60;;;;;;;-144.99;100.00;52554.09;5130689;27;20644;-72
2020/12/23 01:55:20;;;;;;;8.10;4.00;;;;;;;-144.99;100.00;52545.94;5141657;27;20662;-72
2020/12/23 01:57:46;;;;;;;13.43;3.40;;;;;;;-144.99;100.00;52586.69;5134528;27;21008;-72
2020/12/23 02:00:12;;;;;;;8.40;3.40;;;;;;;-144.99;100.00;52582.63;5139460;27;20723;-73
2020/12/23 02:02:41;;;;;;;7.40;2.43;;;;;;;-144.99;100.00;52558.16;5143441;27;20754;-72
2020/12/23 02:05:09;;;;;;;12.20;3.60;;;;;;;-144.99;100.00;52545.94;5141013;27;20693;-72
2020/12/23 02:07:36;;;;;;;10.13;4.80;;;;;;;-144.99;100.00;52545.94;5130662;27;21252;-72
2020/12/23 02:10:04;;;;;;;8.37;4.80;;;;;;;-144.99;100.00;52558.16;5136907;27;20714;-72
2020/12/23 02:12:31;;;;;;;9.43;3.80;;;;;;;-144.99;100.00;52558.16;5142264;27;20709;-71
2020/12/23 02:15:08;;;;;;;12.80;7.93;;;;;;;-144.99;100.00;52541.84;5128963;27;20988;-72
2020/12/23 02:17:34;;;;;;;6.37;3.67;;;;;;;-144.99;100.00;52558.16;5130803;27;20623;-72
2020/12/23 02:20:01;;;;;;;14.57;4.00;;;;;;;-144.99;100.00;52562.25;5118783;27;20621;-72
2020/12/23 02:22:28;;;;;;;14.03;6.63;;;;;;;-144.99;100.00;52558.16;5127298;27;21236;-72
2020/12/23 02:24:55;;;;;;;15.17;4.10;;;;;;;-144.99;100.00;52562.25;5116887;27;20727;-72
2020/12/23 02:27:22;;;;;;;8.70;2.40;;;;;;;-144.99;100.00;52537.78;5127786;27;20662;-71
2020/12/23 02:29:50;;;;;;;5.60;3.27;;;;;;;-144.99;100.00;52562.25;5122339;27;20668;-71
2020/12/23 02:32:17;;;;;;;5.10;2.63;;;;;;;-144.99;100.00;52554.09;5126978;27;20744;-73
2020/12/23 02:34:43;;;;;;;10.60;2.70;;;;;;;-144.99;100.00;52570.38;5113256;27;20978;-73
2020/12/23 02:37:10;;;;;;;6.43;3.07;;;;;;;-144.99;100.00;52566.31;5120842;27;20650;-73
2020/12/23 02:39:38;;;;;;;9.20;2.83;;;;;;;-144.99;100.00;52541.84;5125243;27;20686;-72
2020/12/23 02:42:05;;;;;;;11.87;4.33;;;;;;;-144.99;100.00;52533.69;5118264;27;20701;-72
2020/12/23 02:44:32;;;;;;;4.30;2.33;;;;;;;-144.99;100.00;52558.16;5122467;27;20727;-73
2020/12/23 02:47:01;;;;;;;5.17;3.23;;;;;;;-144.99;100.00;52576.50;5130433;27;20719;-72
2020/12/23 02:49:27;;;;;;;6.40;3.17;;;;;;;-144.99;100.00;52572.44;5121046;27;20657;-72
2020/12/23 02:51:54;;;;;;;7.63;3.30;;;;;;;-144.99;100.00;52590.78;5119510;27;21089;-72
2020/12/23 02:54:20;;;;;;;6.10;4.23;;;;;;;-144.99;100.00;52529.63;5120723;27;20713;-71
2020/12/23 02:56:47;;;;;;;10.60;4.57;;;;;;;-144.99;100.00;52509.25;5116536;27;20660;-71
2020/12/23 02:59:13;;;;;;;9.37;2.77;;;;;;;-144.99;100.00;52562.25;5118673;27;20652;-71
2020/12/23 03:01:40;;;;;;;9.97;3.63;;;;;;;-144.99;100.00;52582.63;5121139;27;20728;-72
2020/12/23 03:04:07;;;;;;;9.10;4.77;;;;;;;-144.99;100.00;52537.78;5129792;27;20676;-73
2020/12/23 03:06:33;;;;;;;9.43;3.97;;;;;;;-144.99;100.00;52537.78;5127230;27;20719;-72
2020/12/23 03:09:00;;;;;;;4.83;3.87;;;;;;;-144.99;100.00;52552.03;5116601;27;20728;-73
2020/12/23 03:11:26;;;;;;;5.77;2.43;;;;;;;-144.99;100.00;52554.09;5119040;27;20688;-72
2020/12/23 03:13:53;;;;;;;10.47;4.07;;;;;;;-144.99;100.00;52560.19;5127867;27;20732;-71
2020/12/23 03:16:20;;;;;;;5.07;2.87;;;;;;;-144.99;100.00;52570.38;5126374;27;20648;-73
2020/12/23 03:18:46;;;;;;;6.43;2.30;;;;;;;-144.99;100.00;52554.09;5124187;27;20716;-72
2020/12/23 03:21:12;;;;;;;19.00;4.00;;;;;;;-144.99;100.00;52562.25;5120211;27;20671;-73
2020/12/23 03:23:38;;;;;;;9.90;3.63;;;;;;;-144.99;100.00;52560.19;5116051;27;20740;-73
2020/12/23 03:26:04;;;;;;;9.37;2.97;;;;;;;-144.99;100.00;52574.47;5122626;27;20716;-73
2020/12/23 03:28:31;;;;;;;9.50;3.43;;;;;;;-144.99;100.00;52586.69;5117226;27;20720;-74
2020/12/23 03:30:58;;;;;;;6.00;2.47;;;;;;;-144.99;100.00;52562.25;5126674;27;20620;-71
2020/12/23 03:33:24;;;;;;;7.67;2.90;;;;;;;-144.99;100.00;52560.19;5121244;27;20755;-73
2020/12/23 03:35:50;;;;;;;6.03;2.60;;;;;;;-144.99;100.00;52564.28;5119992;27;21145;-72
2020/12/23 03:38:16;;;;;;;3.90;2.47;;;;;;;-144.99;100.00;52558.16;5124983;27;20628;-73
2020/12/23 03:40:43;;;;;;;6.63;2.83;;;;;;;-144.99;100.00;52529.63;5127811;27;20692;-72
2020/12/23 03:43:09;;;;;;;4.63;2.90;;;;;;;-144.99;100.00;52537.78;5115377;27;20757;-71
2020/12/23 03:45:35;;;;;;;8.63;3.70;;;;;;;-144.99;100.00;52554.09;5117133;27;20676;-72
2020/12/23 03:48:02;;;;;;;3.63;2.20;;;;;;;-144.99;100.00;52554.09;5127519;27;20703;-73
2020/12/23 03:50:28;;;;;;;3.20;1.77;;;;;;;-144.99;100.00;52554.09;5122123;27;20667;-72
2020/12/23 03:52:54;;;;;;;10.03;3.10;;;;;;;-144.99;100.00;52586.69;5130131;27;20687;-72
2020/12/23 03:55:20;;;;;;;7.77;2.37;;;;;;;-144.99;100.00;52574.47;5124534;27;20621;-71
2020/12/23 03:57:46;;;;;;;5.97;3.33;;;;;;;-144.99;100.00;52590.78;5123600;27;21181;-70
2020/12/23 04:00:13;;;;;;;8.23;2.40;;;;;;;-144.99;100.00;52558.16;5115393;27;20664;-71
2020/12/23 04:02:39;;;;;;;15.97;4.67;;;;;;;-144.99;100.00;52568.34;5120262;27;20767;-70
2020/12/23 04:05:07;;;;;;;55.70;6.53;;;;;;;-144.99;100.00;52574.47;5126088;27;20677;-71
2020/12/23 04:07:35;;;;;;;35.33;5.87;;;;;;;-144.99;100.00;52574.47;5120841;27;20697;-71
2020/12/23 04:10:01;;;;;;;61.00;7.60;;;;;;;-144.99;100.00;52582.63;5117310;27;21223;-72
2020/12/23 04:12:27;;;;;;;57.83;6.17;;;;;;;-144.99;100.00;52554.09;5118294;27;20710;-72
2020/12/23 04:14:53;;;;;;;32.73;4.37;;;;;;;-144.99;100.00;52537.78;5129657;27;21041;-71
2020/12/23 04:17:19;;;;;;;61.27;6.53;;;;;;;-144.99;100.00;52558.16;5127670;27;20643;-71
2020/12/23 04:19:46;;;;;;;41.17;5.77;;;;;;;-144.99;100.00;52590.78;5114876;27;20636;-72
2020/12/23 04:22:13;;;;;;;32.30;5.03;;;;;;;-144.99;100.00;52570.38;5115821;27;20695;-72
2020/12/23 04:24:39;;;;;;;34.87;4.00;;;;;;;-144.99;100.00;52533.69;5121587;27;21157;-71
2020/12/23 04:27:05;;;;;;;19.57;3.43;;;;;;;-144.99;100.00;52568.34;5110519;27;20732;-71
2020/12/23 04:29:31;;;;;;;28.70;4.47;;;;;;;-144.99;100.00;52568.34;5121853;27;20642;-72
2020/12/23 04:31:57;;;;;;;23.17;4.70;;;;;;;-144.99;100.00;52584.66;5119603;27;20687;-72
2020/12/23 04:34:23;;;;;;;21.70;3.77;;;;;;;-144.99;100.00;52574.47;5114263;27;20625;-71
2020/12/23 04:36:50;;;;;;;10.73;2.97;;;;;;;-144.99;100.00;52570.38;5112412;27;20663;-73
2020/12/23 04:39:17;;;;;;;19.90;3.13;;;;;;;-144.99;100.00;52554.09;5118609;27;21062;-72
2020/12/23 04:41:43;;;;;;;26.20;4.57;;;;;;;-144.99;100.00;52590.78;5120078;27;20664;-73
2020/12/23 04:44:09;;;;;;;15.23;3.20;;;;;;;-144.99;100.00;52582.63;5127223;27;20759;-73
2020/12/23 04:46:39;;;;;;;8.63;3.47;;;;;;;-144.99;100.00;52586.69;5126426;27;20716;-73
2020/12/23 04:49:06;;;;;;;9.90;2.73;;;;;;;-144.99;100.00;52545.94;5119320;27;21126;-73
2020/12/23 04:51:34;;;;;;;5.17;2.80;;;;;;;-144.99;100.00;52554.09;5125768;27;20680;-73
2020/12/23 04:54:02;;;;;;;7.53;2.73;;;;;;;-144.99;100.00;52574.47;5119275;28;21190;-73
2020/12/23 04:56:30;;;;;;;12.27;2.50;;;;;;;-144.99;100.00;52550.00;5113938;28;20697;-73
2020/12/23 04:58:57;;;;;;;5.93;4.47;;;;;;;-144.99;100.00;52550.00;5127351;27;20651;-73
2020/12/23 05:01:23;;;;;;;9.23;3.83;;;;;;;-144.99;100.00;52509.25;5124215;28;20730;-73
2020/12/23 05:03:51;;;;;;;9.93;2.97;;;;;;;-144.99;100.00;52566.31;5124860;28;20684;-73
2020/12/23 05:06:17;;;;;;;9.47;3.90;;;;;;;-144.99;100.00;52562.25;5125820;27;20655;-73
2020/12/23 05:08:43;;;;;;;10.80;2.57;;;;;;;-144.99;100.00;52570.38;5126251;28;20736;-73
2020/12/23 05:11:11;;;;;;;14.70;3.73;;;;;;;-144.99;100.00;52584.66;5122706;28;20627;-73
2020/12/23 05:13:40;;;;;;;14.93;3.20;;;;;;;-144.99;100.00;52578.53;5121272;28;21201;-74
2020/12/23 05:16:07;;;;;;;17.13;3.50;;;;;;;-144.99;100.00;52529.63;5117851;28;21083;-74
2020/12/23 05:18:35;;;;;;;18.83;3.83;;;;;;;-144.99;100.00;52605.03;5122879;28;21267;-74
2020/12/23 05:21:02;;;;;;;9.43;3.23;;;;;;;-144.99;100.00;52562.25;5122502;28;20655;-73
2020/12/23 05:23:31;;;;;;;9.40;3.60;;;;;;;-144.99;100.00;52533.69;5111820;28;21115;-72
2020/12/23 05:26:03;;;;;;;13.70;4.47;;;;;;;-144.99;100.00;52572.44;5123068;28;20717;-73
2020/12/23 05:28:30;;;;;;;8.53;3.87;;;;;;;-144.99;100.00;52533.69;5115975;28;20748;-73
2020/12/23 05:30:57;;;;;;;6.93;3.30;;;;;;;-144.99;100.00;52570.38;5125362;28;20989;-73
2020/12/23 05:33:24;;;;;;;17.53;3.93;;;;;;;-144.99;100.00;52584.66;5117591;28;20671;-72
2020/12/23 05:35:54;;;;;;;12.73;3.60;;;;;;;-144.99;100.00;52572.44;5123947;27;20639;-72
2020/12/23 05:38:20;;;;;;;12.73;3.43;;;;;;;-144.99;100.00;52560.19;5117655;28;21274;-72
2020/12/23 05:40:46;;;;;;;14.20;3.47;;;;;;;-144.99;100.00;52554.09;5121022;28;20843;-72
2020/12/23 05:43:14;;;;;;;3.53;3.10;;;;;;;-144.99;100.00;52556.13;5121277;28;21252;-71
2020/12/23 05:45:41;;;;;;;12.27;3.50;;;;;;;-144.99;100.00;52533.69;5113943;28;21222;-72
2020/12/23 05:48:12;;;;;;;9.47;4.30;;;;;;;-144.99;100.00;52566.31;5121593;27;20652;-73
2020/12/23 05:50:38;;;;;;;7.77;4.73;;;;;;;-144.99;100.00;52547.97;5120789;27;20616;-74
2020/12/23 05:53:11;;;;;;;8.43;4.33;;;;;;;-144.99;100.00;52558.16;5123487;27;21213;-74
2020/12/23 05:55:43;;;;;;;22.47;4.13;;;;;;;-144.99;100.00;52574.47;5125459;27;20645;-72
2020/12/23 05:58:09;;;;;;;8.67;3.87;;;;;;;-144.99;100.00;52541.84;5133033;27;20751;-72
2020/12/23 06:00:36;;;;;;;11.17;3.93;;;;;;;-144.99;100.00;52558.16;5131466;27;20679;-72
2020/12/23 06:03:10;;;;;;;12.87;4.80;;;;;;;-144.99;100.00;52556.13;5127313;27;20766;-73
2020/12/23 06:05:43;;;;;;;20.43;4.27;;;;;;;-144.99;100.00;52598.94;5129786;27;20601;-73
2020/12/23 06:08:09;;;;;;;15.93;4.47;;;;;;;-144.99;100.00;52594.84;5123183;27;20637;-73
2020/12/23 06:10:36;;;;;;;15.40;3.97;;;;;;;-144.99;100.00;52578.53;5116639;27;20635;-73
2020/12/23 06:13:12;;;;;;;4.83;3.83;;;;;;;-144.99;100.00;52570.38;5130994;27;20647;-73
2020/12/23 06:15:41;;;;;;;16.20;4.73;;;;;;;-144.99;100.00;52570.38;5124177;27;20708;-72
2020/12/23 06:18:10;;;;;;;11.87;4.53;;;;;;;-144.99;100.00;52537.78;5124591;27;20631;-72
2020/12/23 06:20:44;;;;;;;14.83;5.60;;;;;;;-144.99;100.00;52558.16;5124925;27;21075;-72
2020/12/23 06:23:18;;;;;;;12.43;4.60;;;;;;;-144.99;100.00;52550.00;5130889;27;20708;-72
2020/12/23 06:25:46;;;;;;;26.17;5.10;;;;;;;-144.99;100.00;52533.69;5123319;27;20652;-72
2020/12/23 06:28:20;;;;;;;23.73;7.03;;;;;;;-144.99;100.00;52556.13;5117722;27;20666;-74
2020/12/23 06:30:49;;;;;;;14.83;5.73;;;;;;;-144.99;100.00;52545.94;5126798;27;20718;-72
2020/12/23 06:33:15;;;;;;;10.77;5.07;;;;;;;-144.99;100.00;52560.19;5129517;27;20644;-73
2020/12/23 06:35:42;;;;;;;12.20;3.93;;;;;;;-144.99;100.00;52586.69;5123345;27;20741;-72
2020/12/23 06:38:19;;;;;;;6.20;3.80;;;;;;;-144.99;100.00;52578.53;5122447;27;20678;-73
2020/12/23 06:40:57;;;;;;;18.43;5.47;;;;;;;-144.99;100.00;52562.25;5131762;27;20648;-73
2020/12/23 06:43:53;;;;;;;72.27;14.90;;;;;;;-144.99;100.00;52556.13;5130601;27;20775;-73
2020/12/23 06:46:19;;;;;;;27.80;8.50;;;;;;;-144.99;100.00;52578.53;5120964;27;21225;-73
2020/12/23 06:48:45;;;;;;;23.30;6.20;;;;;;;-144.99;100.00;52588.75;5130094;27;20640;-72
2020/12/23 06:51:39;;;;;;;21.77;7.03;;;;;;;-144.99;100.00;52564.28;5121542;27;20697;-75
2020/12/23 06:54:05;;;;;;;23.57;4.83;;;;;;;-144.99;100.00;52582.63;5123299;27;20721;-74
2020/12/23 06:56:44;;;;;;;18.60;5.97;;;;;;;-144.99;100.00;52562.25;5115535;27;21149;-74
2020/12/23 06:59:45;;;;;;;31.93;6.57;;;;;;;-144.99;100.00;52558.16;5124109;27;20708;-74
2020/12/23 07:02:12;;;;;;;32.87;5.87;;;;;;;-144.99;100.00;52582.63;5122963;27;20703;-75
2020/12/23 07:04:47;;;;;;;22.03;6.83;;;;;;;-144.99;100.00;52525.56;5124537;27;21170;-75
2020/12/23 07:07:28;;;;;;;6.47;3.50;;;;;;;-144.99;100.00;52545.94;5128810;27;21423;-74
2020/12/23 07:09:55;;;;;;;20.23;5.40;;;;;;;-144.99;100.00;52554.09;5127956;27;20628;-73
2020/12/23 07:12:24;;;;;;;10.07;5.10;;;;;;;-144.99;100.00;52554.09;5124314;27;20668;-74
2020/12/23 07:15:06;;;;;;;8.73;5.17;;;;;;;-144.99;100.00;52541.84;5115550;27;21856;-74
2020/12/23 07:17:32;;;;;;;9.10;5.13;;;;;;;-144.99;100.00;52562.25;5130545;27;20648;-75
2020/12/23 07:19:59;;;;;;;11.87;5.37;;;;;;;-144.99;100.00;52562.25;5129078;27;20628;-74
2020/12/23 07:22:28;;;;;;;10.63;5.17;;;;;;;-144.99;100.00;52562.25;5129217;27;21293;-74
2020/12/23 07:24:56;;;;;;;7.43;4.80;;;;;;;-144.99;100.00;52562.25;5116616;27;20724;-75
2020/12/23 07:27:25;;;;;;;10.23;6.30;;;;;;;-144.99;100.00;52586.69;5124978;27;20624;-74
2020/12/23 07:29:56;;;;;;;9.53;4.80;;;;;;;-144.99;100.00;52584.66;5120572;27;20723;-73
2020/12/23 07:32:25;;;;;;;5.83;5.17;;;;;;;-144.99;100.00;52566.31;5126166;27;20643;-71
2020/12/23 07:34:52;;;;;;;20.50;5.73;;;;;;;-144.99;100.00;52564.28;5111995;28;20726;-73
2020/12/23 07:37:18;;;;;;;19.57;5.47;;;;;;;-144.99;100.00;52574.47;5120518;27;21051;-71
2020/12/23 07:39:48;;;;;;;21.70;6.10;;;;;;;-144.99;100.00;52590.78;5123804;27;20662;-73
2020/12/23 07:42:19;;;;;;;30.57;11.27;;;;;;;-144.99;100.00;52574.47;5116931;27;20645;-74
2020/12/23 07:44:50;;;;;;;25.87;6.43;;;;;;;-144.99;100.00;52558.16;5125218;27;20610;-74
2020/12/23 07:47:21;;;;;;;27.17;6.13;;;;;;;-144.99;100.00;52572.44;5115825;27;20612;-75
2020/12/23 07:49:58;;;;;;;44.27;7.77;;;;;;;-144.99;100.00;52574.47;5121817;27;20670;-74
2020/12/23 07:52:25;;;;;;;19.70;5.47;;;;;;;-144.99;100.00;52578.53;5124602;27;21016;-73
2020/12/23 07:54:52;;;;;;;9.80;5.40;;;;;;;-144.99;100.00;52578.53;5122208;27;21068;-73
2020/12/23 07:57:28;;;;;;;11.77;5.40;;;;;;;-144.99;100.00;52552.03;5121515;27;21233;-73
2020/12/23 08:00:00;;;;;;;66.53;8.90;;;;;;;-144.99;100.00;52550.00;5123355;27;20620;-73
2020/12/23 08:02:26;;;;;;;48.67;11.63;;;;;;;-144.99;100.00;52490.91;5119406;27;21099;-74
2020/12/23 08:04:52;;;;;;;92.37;14.97;;;;;;;-144.99;100.00;52580.59;5122733;27;20635;-74
2020/12/23 08:07:22;;;;;;;48.90;12.33;;;;;;;-144.99;100.00;52558.16;5119331;27;20640;-74
2020/12/23 08:09:48;;;;;;;40.47;11.63;;;;;;;-144.99;100.00;52570.38;5123153;27;20651;-74
2020/12/23 08:12:17;;;;;;;31.23;8.43;;;;;;;-144.99;100.00;52566.31;5126797;27;20747;-73
2020/12/23 08:14:43;;;;;;;29.17;8.97;;;;;;;-144.99;100.00;52558.16;5127533;27;21169;-73
2020/12/23 08:17:10;;;;;;;24.67;9.47;;;;;;;-144.99;100.00;52545.94;5118396;27;20695;-73
2020/12/23 08:19:36;;;;;;;30.57;7.13;;;;;;;-144.99;100.00;52558.16;5115990;27;20625;-72
2020/12/23 08:22:12;;;;;;;14.30;6.20;;;;;;;-144.99;100.00;52598.94;5126953;27;20696;-72
2020/12/23 08:24:38;;;;;;;19.47;5.83;;;;;;;-144.99;100.00;52523.50;5125173;27;20713;-74
2020/12/23 08:27:04;;;;;;;37.90;10.60;;;;;;;-144.99;100.00;52564.28;5126209;27;21231;-75
2020/12/23 08:29:32;;;;;;;17.90;6.57;;;;;;;-144.99;100.00;52586.69;5115081;27;20922;-75
2020/12/23 08:32:02;;;;;;;14.90;6.37;;;;;;;-144.99;100.00;52550.00;5124727;27;20651;-75
2020/12/23 08:34:29;;;;;;;23.07;7.40;;;;;;;-144.99;100.00;52550.00;5115488;27;20648;-74
2020/12/23 08:36:55;;;;;;;10.30;5.57;;;;;;;-144.99;100.00;52574.47;5127277;27;20647;-74
2020/12/23 08:39:25;;;;;;;21.13;6.40;;;;;;;-144.99;100.00;52545.94;5123475;27;20644;-74
2020/12/23 08:41:52;;;;;;;12.47;6.87;;;;;;;-144.99;100.00;52509.25;5112574;28;21324;-75
2020/12/23 08:44:21;;;;;;;17.03;6.50;;;;;;;-144.99;100.00;52578.53;5114540;27;21328;-74
2020/12/23 08:46:49;;;;;;;16.27;6.57;;;;;;;-144.99;100.00;52545.94;5119816;27;21228;-73
2020/12/23 08:49:16;;;;;;;12.70;7.00;;;;;;;-144.99;100.00;52537.78;5118553;27;20708;-74
2020/12/23 08:51:42;;;;;;;10.73;6.20;;;;;;;-144.99;100.00;52537.78;5125126;27;20691;-75
2020/12/23 08:54:15;;;;;;;10.03;7.20;;;;;;;-144.99;100.00;52562.25;5118568;27;20845;-75
2020/12/23 08:56:48;;;;;;;15.07;6.27;;;;;;;-144.99;100.00;52545.94;5119202;27;21113;-74
2020/12/23 08:59:15;;;;;;;12.33;7.47;;;;;;;-144.99;100.00;52550.00;5123604;27;20639;-74
2020/12/23 09:01:43;;;;;;;12.23;8.77;;;;;;;-144.99;100.00;52541.84;5120149;27;20637;-75
2020/12/23 09:04:12;;;;;;;10.93;6.70;;;;;;;-144.99;100.00;52541.84;5123027;28;20648;-75
2020/12/23 09:06:39;;;;;;;13.17;6.50;;;;;;;-144.99;100.00;52554.09;5127684;27;20674;-74
2020/12/23 09:09:07;;;;;;;20.17;10.50;;;;;;;-144.99;100.00;52545.94;5118394;28;20691;-74
2020/12/23 09:11:44;;;;;;;12.43;9.47;;;;;;;-144.99;100.00;52576.50;5124020;28;21002;-73
2020/12/23 09:14:23;;;;;;;19.60;9.97;;;;;;;-144.99;100.00;52521.47;5120907;27;20981;-73
2020/12/23 09:16:58;;;;;;;19.23;8.87;;;;;;;-144.99;100.00;52554.09;5123381;28;20653;-73
2020/12/23 09:19:48;;;;;;;16.50;8.07;;;;;;;-144.99;100.00;52511.28;5123475;28;20619;-73
2020/12/23 09:22:27;;;;;;;17.67;7.80;;;;;;;-144.99;100.00;52558.16;5109985;28;21051;-73
2020/12/23 09:25:11;;;;;;;37.93;10.60;;;;;;;-144.99;100.00;52554.09;5125078;27;20715;-73
2020/12/23 09:27:37;;;;;;;23.93;10.60;;;;;;;-144.99;100.00;52570.38;5120874;27;20632;-72
2020/12/23 09:30:04;;;;;;;19.70;11.23;;;;;;;-144.99;100.00;52570.38;5113581;28;20653;-73
2020/12/23 09:32:31;;;;;;;16.73;11.20;;;;;;;-144.99;100.00;52523.50;5132328;27;20701;-73
2020/12/23 09:35:15;;;;;;;20.03;13.27;;;;;;;-144.99;100.00;52570.38;5134388;27;20631;-74
2020/12/23 09:37:43;;;;;;;24.27;11.23;;;;;;;-144.99;100.00;52554.09;5137893;27;20714;-73
2020/12/23 09:40:10;;;;;;;14.63;9.57;;;;;;;-144.99;100.00;52541.84;5134008;27;20612;-74
2020/12/23 09:42:37;;;;;;;13.70;10.27;;;;;;;-144.99;100.00;52513.31;5129574;27;20640;-74
2020/12/23 09:45:03;;;;;;;13.93;10.07;;;;;;;-144.99;100.00;52521.47;5134544;27;20632;-75
2020/12/23 09:47:29;;;;;;;21.90;12.13;;;;;;;-144.99;100.00;52541.84;5134577;27;20705;-73
2020/12/23 09:49:56;;;;;;;23.70;15.50;;;;;;;-144.99;100.00;52541.84;5133577;27;20755;-73
2020/12/23 09:52:23;;;;;;;14.37;11.90;;;;;;;-144.99;100.00;52554.09;5133902;27;20652;-72
2020/12/23 09:54:49;;;;;;;16.33;11.63;;;;;;;-144.99;100.00;52541.84;5130464;27;20707;-72
2020/12/23 09:57:15;;;;;;;20.77;13.73;;;;;;;-144.99;100.00;52562.25;5133042;27;20643;-72
2020/12/23 09:59:41;;;;;;;13.20;11.17;;;;;;;-144.99;100.00;52501.09;5128040;27;20647;-73
2020/12/23 10:02:08;;;;;;;15.93;9.43;;;;;;;-144.99;100.00;52529.63;5133028;27;20670;-73
2020/12/23 10:04:34;;;;;;;18.40;10.47;;;;;;;-144.99;100.00;52529.63;5132059;27;20691;-73
2020/12/23 10:07:00;;;;;;;39.60;12.73;;;;;;;-144.99;100.00;52533.69;5131159;27;21205;-72
2020/12/23 10:09:27;;;;;;;17.57;12.03;;;;;;;-144.99;100.00;52566.31;5130572;27;20947;-73
2020/12/23 10:11:53;;;;;;;38.87;11.93;;;;;;;-144.99;100.00;52537.78;5119704;27;20656;-73
2020/12/23 10:14:19;;;;;;;36.43;16.67;;;;;;;-144.99;100.00;52505.16;5119059;27;20625;-73
2020/12/23 10:16:45;;;;;;;33.73;17.27;;;;;;;-144.99;100.00;52550.00;5125245;27;20646;-74
2020/12/23 10:19:11;;;;;;;40.77;16.07;;;;;;;-144.99;100.00;52552.03;5122555;27;20627;-73
2020/12/23 10:21:38;;;;;;;36.90;15.50;;;;;;;-144.99;100.00;52558.16;5112374;28;20785;-76
2020/12/23 10:24:04;;;;;;;22.73;15.83;;;;;;;-144.99;100.00;52529.63;5118047;27;20762;-74
2020/12/23 10:26:31;;;;;;;25.37;14.50;;;;;;;-144.99;100.00;52525.56;5125664;27;21344;-73
2020/12/23 10:28:57;;;;;;;28.23;16.30;;;;;;;-144.99;100.00;52576.50;5117458;27;20636;-74
2020/12/23 10:31:23;;;;;;;34.23;14.93;;;;;;;-144.99;100.00;52558.16;5115816;27;20741;-75
2020/12/23 10:33:49;;;;;;;18.50;13.23;;;;;;;-144.99;100.00;52517.41;5117922;27;21194;-73
2020/12/23 10:36:16;;;;;;;22.00;10.83;;;;;;;-144.99;100.00;52558.16;5112084;28;21067;-73
2020/12/23 10:38:43;;;;;;;19.10;12.43;;;;;;;-144.99;100.00;52484.78;5123810;27;21008;-75
2020/12/23 10:41:09;;;;;;;29.93;14.23;;;;;;;-144.99;100.00;52527.59;5126486;27;20719;-73
2020/12/23 10:43:36;;;;;;;25.10;14.33;;;;;;;-144.99;100.00;52486.81;5122522;27;20700;-76
2020/12/23 10:46:07;;;;;;;21.43;12.93;;;;;;;-144.99;100.00;52547.97;5116124;27;20632;-74
2020/12/23 10:48:33;;;;;;;19.63;14.73;;;;;;;-144.99;100.00;52574.47;5125758;27;20619;-73
2020/12/23 10:51:03;;;;;;;25.40;14.73;;;;;;;-144.99;100.00;52537.78;5127951;27;20686;-73
2020/12/23 10:53:29;;;;;;;27.37;13.70;;;;;;;-144.99;100.00;52552.03;5112235;27;20659;-74
2020/12/23 10:55:55;;;;;;;23.53;13.37;;;;;;;-144.99;100.00;52515.34;5112335;28;20720;-73
2020/12/23 10:58:21;;;;;;;23.57;14.57;;;;;;;-144.99;100.00;52517.41;5119369;27;20652;-73
2020/12/23 11:00:48;;;;;;;24.17;13.83;;;;;;;-144.99;100.00;52545.94;5113180;27;20783;-73
2020/12/23 11:03:14;;;;;;;23.20;14.93;;;;;;;-144.99;100.00;52545.94;5123811;27;20775;-74
2020/12/23 11:05:40;;;;;;;23.83;15.87;;;;;;;-144.99;100.00;52492.94;5112762;27;20674;-73
2020/12/23 11:08:07;;;;;;;19.83;12.73;;;;;;;-144.99;100.00;52529.63;5122073;27;20701;-73